Time;durP1;ratioP1;P1;durP2;ratioP2;P2;SDS_P1;SDS_P2;PMS_P1;PMS_P2;Temp;Humidity;BMP_temperature;BMP_pressure;BME280_temperature;BME280_humidity;BME280_pressure;Samples;Min_cycle;Max_cycle;Signal;HPM_P1;HPM_P2
2023/12/16 00:01:37;;;;;;;;;;;;;;;3.49;59.59;102396.56;5449509;32;34794;-77
2023/12/16 00:04:43;;;;;;;;;;;;;;;3.37;60.32;102404.09;5466999;32;34212;-77
2023/12/16 00:07:45;;;;;;;;;;;;;;;3.35;60.12;102394.47;5464155;32;34841;-78
2023/12/16 00:10:47;;;;;;;;;;;;;;;3.67;59.39;102401.28;5467412;32;34970;-77
2023/12/16 00:13:55;;;;;;;;;;;;;;;3.88;58.18;102403.47;5466360;32;35062;-78
2023/12/16 00:16:57;;;;;;;;;;;;;;;2.82;60.78;102401.91;5464522;32;34113;-79
2023/12/16 00:19:59;;;;;;;;;;;;;;;2.76;61.52;102405.22;5469348;32;35339;-78
2023/12/16 00:23:02;;;;;;;;;;;;;;;3.25;59.90;102404.69;5446268;32;34311;-79
2023/12/16 00:26:04;;;;;;;;;;;;;;;3.43;59.34;102401.62;5454911;32;34802;-78
2023/12/16 00:29:06;;;;;;;;;;;;;;;4.09;57.72;102403.00;5445741;32;34416;-77
2023/12/16 00:32:08;;;;;;;;;;;;;;;3.72;58.57;102406.56;5446902;32;34455;-77
2023/12/16 00:35:11;;;;;;;;;;;;;;;3.48;59.56;102404.34;5452183;32;35341;-77
2023/12/16 00:38:13;;;;;;;;;;;;;;;3.34;59.24;102410.94;5451030;32;34951;-77
2023/12/16 00:41:15;;;;;;;;;;;;;;;3.32;59.09;102410.91;5468745;32;34758;-77
2023/12/16 00:44:17;;;;;;;;;;;;;;;2.70;61.15;102411.16;5464721;32;35029;-77
2023/12/16 00:47:19;;;;;;;;;;;;;;;3.52;59.50;102406.16;5466125;32;34803;-78
2023/12/16 00:50:21;;;;;;;;;;;;;;;3.37;59.57;102396.28;5463327;32;34281;-79
2023/12/16 00:53:24;;;;;;;;;;;;;;;3.36;59.34;102409.25;5466268;32;34990;-79
2023/12/16 00:56:26;;;;;;;;;;;;;;;3.24;60.14;102425.44;5454667;32;35628;-78
2023/12/16 00:59:28;;;;;;;;;;;;;;;3.87;57.98;102422.53;5464979;32;34615;-76
2023/12/16 01:02:30;;;;;;;;;;;;;;;3.46;59.23;102426.81;5470306;32;34948;-78
2023/12/16 01:05:32;;;;;;;;;;;;;;;3.57;58.86;102435.72;5464699;32;34651;-77
2023/12/16 01:08:35;;;;;;;;;;;;;;;4.23;57.52;102434.50;5469396;32;34774;-78
2023/12/16 01:11:37;;;;;;;;;;;;;;;3.51;59.07;102436.47;5450195;32;34489;-78
2023/12/16 01:14:39;;;;;;;;;;;;;;;3.17;60.57;102424.44;5451261;32;36111;-77
2023/12/16 01:17:41;;;;;;;;;;;;;;;3.26;59.93;102431.53;5466223;32;35871;-77
2023/12/16 01:20:44;;;;;;;;;;;;;;;3.13;60.44;102437.31;5465641;32;34269;-78
2023/12/16 01:23:46;;;;;;;;;;;;;;;3.16;60.59;102448.66;5469208;32;34046;-77
2023/12/16 01:26:48;;;;;;;;;;;;;;;2.94;61.07;102442.03;5465343;32;34676;-78
2023/12/16 01:29:50;;;;;;;;;;;;;;;2.22;63.51;102456.56;5468730;32;34238;-79
2023/12/16 01:32:52;;;;;;;;;;;;;;;2.33;63.38;102450.84;5446947;32;34446;-78
2023/12/16 01:35:55;;;;;;;;;;;;;;;3.04;61.78;102448.34;5451567;32;35622;-78
2023/12/16 01:38:57;;;;;;;;;;;;;;;2.46;62.53;102448.56;5447756;32;35434;-77
2023/12/16 01:42:00;;;;;;;;;;;;;;;3.05;61.07;102444.91;5462529;32;34490;-79
2023/12/16 01:45:03;;;;;;;;;;;;;;;2.86;61.54;102447.91;5469110;32;34365;-78
2023/12/16 01:48:06;;;;;;;;;;;;;;;2.84;62.15;102452.19;5462892;32;35123;-77
2023/12/16 01:51:08;;;;;;;;;;;;;;;3.17;60.99;102450.41;5453530;32;34840;-78
2023/12/16 01:54:11;;;;;;;;;;;;;;;3.19;61.08;102459.09;5463095;32;35128;-78
2023/12/16 01:57:13;;;;;;;;;;;;;;;3.46;60.57;102458.88;5450454;32;35017;-79
2023/12/16 02:00:16;;;;;;;;;;;;;;;3.74;59.68;102457.78;5454369;32;34263;-77
2023/12/16 02:03:18;;;;;;;;;;;;;;;4.00;58.98;102457.47;5436112;32;34984;-77
2023/12/16 02:06:20;;;;;;;;;;;;;;;3.31;59.99;102444.66;5455640;32;34786;-77
2023/12/16 02:09:23;;;;;;;;;;;;;;;3.27;60.26;102448.91;5465250;32;34515;-77
2023/12/16 02:12:30;;;;;;;;;;;;;;;3.35;59.79;102455.19;5453889;32;35406;-77
2023/12/16 02:15:32;;;;;;;;;;;;;;;3.32;60.51;102446.41;5451564;32;34879;-78
2023/12/16 02:18:34;;;;;;;;;;;;;;;3.31;60.40;102444.66;5464852;32;34302;-76
2023/12/16 02:21:36;;;;;;;;;;;;;;;3.93;59.12;102450.34;5469736;32;36481;-78
2023/12/16 02:24:41;;;;;;;;;;;;;;;3.89;58.97;102458.97;5447797;32;34412;-78
2023/12/16 02:27:47;;;;;;;;;;;;;;;3.31;60.78;102465.47;5454818;32;34713;-77
2023/12/16 02:30:49;;;;;;;;;;;;;;;3.20;61.48;102470.37;5450248;32;34861;-78
2023/12/16 02:33:52;;;;;;;;;;;;;;;3.96;59.18;102466.94;5467210;32;34316;-79
2023/12/16 02:36:54;;;;;;;;;;;;;;;3.38;60.20;102462.16;5466064;32;35532;-77
2023/12/16 02:39:56;;;;;;;;;;;;;;;3.35;60.28;102460.37;5463403;32;35344;-79
2023/12/16 02:42:58;;;;;;;;;;;;;;;3.50;60.23;102459.84;5468681;32;35031;-77
2023/12/16 02:46:00;;;;;;;;;;;;;;;3.37;60.44;102470.81;5465078;32;34771;-77
2023/12/16 02:49:03;;;;;;;;;;;;;;;2.85;62.51;102474.72;5460765;32;34748;-79
2023/12/16 02:52:05;;;;;;;;;;;;;;;3.42;61.14;102483.06;5467520;32;34271;-76
2023/12/16 02:55:07;;;;;;;;;;;;;;;3.60;60.63;102484.31;5466094;32;34616;-78
2023/12/16 02:58:10;;;;;;;;;;;;;;;4.27;57.95;102491.00;5466517;32;35173;-79
2023/12/16 03:01:12;;;;;;;;;;;;;;;4.13;58.20;102495.03;5464546;32;35046;-77
2023/12/16 03:04:14;;;;;;;;;;;;;;;3.12;60.86;102519.56;5468451;32;34968;-77
2023/12/16 03:07:16;;;;;;;;;;;;;;;3.40;60.55;102515.03;5464380;32;36462;-77
2023/12/16 03:10:19;;;;;;;;;;;;;;;3.60;59.68;102512.91;5469502;32;34825;-78
2023/12/16 03:13:21;;;;;;;;;;;;;;;3.64;59.44;102505.22;5443656;32;35548;-77
2023/12/16 03:16:23;;;;;;;;;;;;;;;3.13;60.97;102510.06;5465485;32;35202;-78
2023/12/16 03:19:27;;;;;;;;;;;;;;;2.74;63.32;102515.09;5465935;32;34902;-78
2023/12/16 03:22:29;;;;;;;;;;;;;;;3.37;61.18;102509.78;5458880;32;34480;-78
2023/12/16 03:25:31;;;;;;;;;;;;;;;3.98;59.09;102499.06;5467667;32;34892;-77
2023/12/16 03:28:34;;;;;;;;;;;;;;;4.12;58.20;102514.94;5448301;32;35746;-78
2023/12/16 03:31:36;;;;;;;;;;;;;;;3.41;59.97;102514.19;5467838;32;35357;-77
2023/12/16 03:34:38;;;;;;;;;;;;;;;3.00;61.70;102519.25;5462157;32;35331;-77
2023/12/16 03:37:40;;;;;;;;;;;;;;;2.66;63.24;102513.16;5464142;32;34215;-78
2023/12/16 03:40:42;;;;;;;;;;;;;;;2.46;64.30;102529.91;5466939;32;34631;-77
2023/12/16 03:43:45;;;;;;;;;;;;;;;2.42;64.70;102534.13;5463806;32;34836;-79
2023/12/16 03:46:47;;;;;;;;;;;;;;;2.74;63.72;102536.75;5467643;32;34883;-78
2023/12/16 03:49:49;;;;;;;;;;;;;;;2.85;64.35;102544.84;5446193;32;34774;-77
2023/12/16 03:52:51;;;;;;;;;;;;;;;3.67;61.50;102536.53;5464950;32;34252;-76
2023/12/16 03:55:53;;;;;;;;;;;;;;;3.50;61.21;102543.91;5448387;32;34924;-79
2023/12/16 03:58:55;;;;;;;;;;;;;;;3.54;61.48;102550.06;5465131;32;35009;-78
2023/12/16 04:01:58;;;;;;;;;;;;;;;2.92;62.45;102542.44;5466472;32;34317;-78
2023/12/16 04:05:00;;;;;;;;;;;;;;;2.87;62.74;102545.75;5462174;32;34649;-78
2023/12/16 04:08:03;;;;;;;;;;;;;;;2.81;62.96;102551.66;5452529;32;34607;-77
2023/12/16 04:11:06;;;;;;;;;;;;;;;2.33;64.77;102564.12;5449008;32;34990;-79
2023/12/16 04:14:08;;;;;;;;;;;;;;;2.35;64.51;102562.47;5467373;32;35330;-78
2023/12/16 04:17:10;;;;;;;;;;;;;;;2.68;63.83;102555.63;5448808;32;34891;-77
2023/12/16 04:20:12;;;;;;;;;;;;;;;3.04;62.88;102554.00;5448699;32;34726;-78
2023/12/16 04:23:14;;;;;;;;;;;;;;;3.65;61.09;102555.53;5466253;32;35320;-77
2023/12/16 04:26:16;;;;;;;;;;;;;;;3.13;61.75;102544.72;5462381;32;34194;-79
2023/12/16 04:29:19;;;;;;;;;;;;;;;2.94;62.84;102566.72;5466873;32;35530;-78
2023/12/16 04:32:21;;;;;;;;;;;;;;;3.04;62.27;102570.47;5462184;32;34696;-77
2023/12/16 04:35:23;;;;;;;;;;;;;;;2.90;62.98;102579.59;5467138;32;34293;-78
2023/12/16 04:38:25;;;;;;;;;;;;;;;3.60;61.29;102571.00;5457232;32;34359;-78
2023/12/16 04:41:27;;;;;;;;;;;;;;;3.96;59.81;102567.53;5465676;32;35407;-79
2023/12/16 04:44:29;;;;;;;;;;;;;;;3.68;58.99;102566.88;5469278;32;35376;-78
2023/12/16 04:47:32;;;;;;;;;;;;;;;3.26;60.68;102572.78;5464055;32;35175;-78
2023/12/16 04:50:34;;;;;;;;;;;;;;;2.51;63.50;102590.59;5465718;32;35631;-77
2023/12/16 04:53:36;;;;;;;;;;;;;;;2.85;63.18;102583.78;5450203;32;34561;-77
2023/12/16 04:56:38;;;;;;;;;;;;;;;2.74;62.94;102582.59;5470610;32;34595;-78
2023/12/16 04:59:40;;;;;;;;;;;;;;;3.17;62.16;102572.53;5465539;32;35449;-77
2023/12/16 05:02:43;;;;;;;;;;;;;;;3.77;59.82;102574.91;5465838;32;34959;-77
2023/12/16 05:05:45;;;;;;;;;;;;;;;3.01;61.35;102583.34;5454727;32;34398;-77
2023/12/16 05:08:47;;;;;;;;;;;;;;;2.16;64.43;102584.38;5465009;32;34063;-78
2023/12/16 05:11:49;;;;;;;;;;;;;;;2.32;64.50;102594.41;5468695;32;34141;-77
2023/12/16 05:14:51;;;;;;;;;;;;;;;1.14;68.38;102599.19;5463849;32;35870;-77
2023/12/16 05:17:53;;;;;;;;;;;;;;;1.32;67.64;102584.28;5467820;32;35132;-78
2023/12/16 05:20:56;;;;;;;;;;;;;;;1.74;66.30;102602.97;5465051;32;34257;-77
2023/12/16 05:23:58;;;;;;;;;;;;;;;2.50;64.37;102601.81;5462015;32;34447;-77
2023/12/16 05:27:00;;;;;;;;;;;;;;;3.42;61.27;102593.97;5455365;32;35113;-77
2023/12/16 05:30:02;;;;;;;;;;;;;;;3.01;62.15;102613.66;5464727;32;35408;-78
2023/12/16 05:33:06;;;;;;;;;;;;;;;3.41;60.68;102606.06;5469380;32;34494;-80
2023/12/16 05:36:08;;;;;;;;;;;;;;;3.57;60.33;102607.34;5466575;32;35497;-79
2023/12/16 05:39:11;;;;;;;;;;;;;;;3.11;60.84;102618.28;5469895;32;35668;-77
2023/12/16 05:42:13;;;;;;;;;;;;;;;2.98;61.83;102619.66;5465132;32;34904;-78
2023/12/16 05:45:15;;;;;;;;;;;;;;;2.99;62.00;102614.50;5463619;32;34765;-78
2023/12/16 05:48:17;;;;;;;;;;;;;;;2.49;63.30;102620.84;5451723;32;34546;-78
2023/12/16 05:51:20;;;;;;;;;;;;;;;2.14;65.10;102628.44;5462644;32;34463;-77
2023/12/16 05:54:25;;;;;;;;;;;;;;;2.52;64.58;102631.34;5460127;32;34839;-78
2023/12/16 05:57:27;;;;;;;;;;;;;;;2.60;63.98;102631.56;5465181;32;36447;-77
2023/12/16 06:00:29;;;;;;;;;;;;;;;2.46;64.03;102633.75;5468334;32;34149;-79
2023/12/16 06:03:31;;;;;;;;;;;;;;;2.35;64.43;102630.81;5465160;32;35293;-78
2023/12/16 06:06:33;;;;;;;;;;;;;;;2.54;64.34;102629.66;5462906;32;35455;-79
2023/12/16 06:09:36;;;;;;;;;;;;;;;2.49;64.39;102635.53;5468086;32;34463;-78
2023/12/16 06:12:38;;;;;;;;;;;;;;;2.50;64.20;102634.69;5463831;32;34648;-78
2023/12/16 06:15:40;;;;;;;;;;;;;;;2.84;63.03;102637.47;5468733;32;34200;-77
2023/12/16 06:18:43;;;;;;;;;;;;;;;2.10;64.88;102639.56;5464013;32;34807;-79
2023/12/16 06:21:45;;;;;;;;;;;;;;;3.18;62.80;102639.25;5453678;32;34734;-77
2023/12/16 06:24:48;;;;;;;;;;;;;;;3.08;62.08;102636.37;5467068;32;35069;-77
2023/12/16 06:27:50;;;;;;;;;;;;;;;3.86;59.80;102633.19;5464391;32;34481;-78
2023/12/16 06:30:52;;;;;;;;;;;;;;;2.54;63.49;102629.66;5470231;32;34835;-77
2023/12/16 06:33:54;;;;;;;;;;;;;;;3.13;62.89;102639.97;5463971;32;35462;-77
2023/12/16 06:36:56;;;;;;;;;;;;;;;3.60;60.49;102629.94;5471618;32;34968;-77
2023/12/16 06:39:59;;;;;;;;;;;;;;;3.11;62.75;102652.06;5467584;32;34904;-78
2023/12/16 06:43:04;;;;;;;;;;;;;;;3.46;60.74;102637.38;5466036;32;34344;-77
2023/12/16 06:46:07;;;;;;;;;;;;;;;2.77;62.90;102647.59;5466995;32;35220;-76
2023/12/16 06:49:09;;;;;;;;;;;;;;;2.80;64.11;102655.50;5463210;32;35223;-78
2023/12/16 06:52:11;;;;;;;;;;;;;;;3.67;61.91;102661.38;5454180;32;34255;-78
2023/12/16 06:55:13;;;;;;;;;;;;;;;3.20;62.90;102666.16;5463419;32;34772;-77
2023/12/16 06:58:16;;;;;;;;;;;;;;;3.10;63.69;102671.09;5468776;32;36262;-78
2023/12/16 07:01:21;;;;;;;;;;;;;;;2.86;63.76;102668.66;5450146;32;34318;-78
2023/12/16 07:04:24;;;;;;;;;;;;;;;3.19;63.48;102672.22;5451300;32;34259;-77
2023/12/16 07:07:26;;;;;;;;;;;;;;;2.67;64.01;102678.50;5469057;32;35248;-77
2023/12/16 07:10:28;;;;;;;;;;;;;;;2.81;64.55;102683.22;5464566;32;35340;-78
2023/12/16 07:13:30;;;;;;;;;;;;;;;3.03;64.21;102685.62;5468542;32;35308;-77
2023/12/16 07:16:33;;;;;;;;;;;;;;;2.42;66.26;102699.38;5464794;32;34445;-78
2023/12/16 07:19:35;;;;;;;;;;;;;;;2.98;64.10;102714.06;5468655;32;35509;-76
2023/12/16 07:22:38;;;;;;;;;;;;;;;2.63;64.83;102701.72;5464527;32;35112;-78
2023/12/16 07:25:40;;;;;;;;;;;;;;;3.02;64.54;102709.81;5464566;32;35497;-77
2023/12/16 07:28:42;;;;;;;;;;;;;;;3.11;63.53;102712.69;5445574;32;34892;-76
2023/12/16 07:31:48;;;;;;;;;;;;;;;2.79;64.44;102722.16;5463595;32;34864;-77
2023/12/16 07:34:50;;;;;;;;;;;;;;;3.51;63.08;102711.19;5466936;32;34538;-77
2023/12/16 07:37:53;;;;;;;;;;;;;;;3.92;62.15;102712.25;5461987;32;34938;-78
2023/12/16 07:40:56;;;;;;;;;;;;;;;4.24;59.56;102704.37;5467161;32;34480;-77
2023/12/16 07:43:58;;;;;;;;;;;;;;;3.90;61.18;102716.56;5442792;32;35358;-77
2023/12/16 07:47:00;;;;;;;;;;;;;;;4.21;60.79;102702.59;5447225;32;34949;-79
2023/12/16 07:50:03;;;;;;;;;;;;;;;4.79;58.59;102693.47;5465942;32;34880;-78
2023/12/16 07:53:05;;;;;;;;;;;;;;;4.85;57.73;102687.53;5443292;32;35180;-77
2023/12/16 07:56:09;;;;;;;;;;;;;;;4.76;58.64;102708.16;5466505;32;34848;-78
2023/12/16 07:59:11;;;;;;;;;;;;;;;4.93;58.56;102705.91;5444367;32;34709;-78
2023/12/16 08:02:13;;;;;;;;;;;;;;;5.09;57.70;102708.00;5466490;32;34194;-78
2023/12/16 08:05:16;;;;;;;;;;;;;;;5.52;56.67;102716.66;5462915;32;34425;-77
2023/12/16 08:08:18;;;;;;;;;;;;;;;4.71;58.83;102713.28;5461955;32;35092;-77
2023/12/16 08:11:20;;;;;;;;;;;;;;;4.67;59.45;102708.84;5469898;32;35189;-79
2023/12/16 08:14:22;;;;;;;;;;;;;;;5.19;58.21;102709.94;5465056;32;34326;-79
2023/12/16 08:17:25;;;;;;;;;;;;;;;4.96;59.21;102713.78;5470008;32;34415;-77
2023/12/16 08:20:27;;;;;;;;;;;;;;;5.18;58.62;102716.00;5465586;32;35669;-79
2023/12/16 08:23:29;;;;;;;;;;;;;;;4.71;59.19;102713.28;5455703;32;35567;-77
2023/12/16 08:26:32;;;;;;;;;;;;;;;5.56;57.75;102714.16;5465809;32;35528;-77
2023/12/16 08:29:34;;;;;;;;;;;;;;;5.84;56.52;102712.03;5464772;32;35525;-78
2023/12/16 08:32:36;;;;;;;;;;;;;;;6.01;56.24;102721.06;5456141;32;33939;-78
2023/12/16 08:35:39;;;;;;;;;;;;;;;6.30;55.21;102724.13;5467346;32;35310;-77
2023/12/16 08:38:41;;;;;;;;;;;;;;;5.78;56.97;102731.06;5434874;32;34936;-78
2023/12/16 08:41:43;;;;;;;;;;;;;;;6.04;56.42;102728.94;5462524;32;34162;-79
2023/12/16 08:44:46;;;;;;;;;;;;;;;5.65;57.25;102729.94;5470397;32;34898;-78
2023/12/16 08:47:48;;;;;;;;;;;;;;;5.32;59.08;102727.59;5466031;32;35068;-78
2023/12/16 08:50:51;;;;;;;;;;;;;;;6.11;57.14;102732.53;5452711;32;34427;-78
2023/12/16 08:53:53;;;;;;;;;;;;;;;6.05;57.69;102730.69;5471571;32;35015;-78
2023/12/16 08:56:55;;;;;;;;;;;;;;;6.25;57.25;102723.22;5449199;32;35137;-79
2023/12/16 08:59:57;;;;;;;;;;;;;;;6.55;56.33;102724.50;5469576;32;35334;-80
2023/12/16 09:02:59;;;;;;;;;;;;;;;6.09;57.50;102729.00;5465483;32;34744;-78
2023/12/16 09:06:02;;;;;;;;;;;;;;;6.30;57.17;102728.47;5454582;32;35458;-79
2023/12/16 09:09:04;;;;;;;;;;;;;;;6.63;56.45;102725.50;5466143;32;35467;-80
2023/12/16 09:12:06;;;;;;;;;;;;;;;6.55;56.30;102735.84;5446546;32;35691;-79
2023/12/16 09:15:08;;;;;;;;;;;;;;;7.01;55.45;102729.50;5470220;32;34539;-78
2023/12/16 09:18:11;;;;;;;;;;;;;;;6.65;56.38;102726.41;5465764;32;35547;-79
2023/12/16 09:21:16;;;;;;;;;;;;;;;6.16;57.47;102730.88;5468953;32;35075;-79
2023/12/16 09:24:19;;;;;;;;;;;;;;;6.35;57.85;102722.47;5465968;32;34973;-80
2023/12/16 09:27:21;;;;;;;;;;;;;;;5.94;57.84;102724.44;5467813;32;35100;-79
2023/12/16 09:30:23;;;;;;;;;;;;;;;6.77;56.88;102710.91;5470569;32;34422;-79
2023/12/16 09:33:26;;;;;;;;;;;;;;;6.84;56.75;102712.75;5466433;32;34789;-78
2023/12/16 09:36:28;;;;;;;;;;;;;;;6.17;58.96;102719.56;5454518;32;34927;-79
2023/12/16 09:39:33;;;;;;;;;;;;;;;6.42;57.99;102718.22;5465307;32;35635;-79
2023/12/16 09:42:36;;;;;;;;;;;;;;;6.34;58.26;102712.00;5468968;32;35240;-79
2023/12/16 09:45:42;;;;;;;;;;;;;;;6.67;57.44;102706.41;5465295;32;36192;-79
2023/12/16 09:48:46;;;;;;;;;;;;;;;6.74;57.85;102713.47;5449179;32;36246;-77
2023/12/16 09:51:51;;;;;;;;;;;;;;;6.46;57.74;102715.69;5456045;32;35295;-80
2023/12/16 09:54:54;;;;;;;;;;;;;;;7.15;56.57;102708.78;5466636;32;34641;-78
2023/12/16 09:57:57;;;;;;;;;;;;;;;7.67;53.93;102700.63;5462241;32;34977;-77
2023/12/16 10:00:59;;;;;;;;;;;;;;;7.74;53.83;102694.59;5463871;32;35320;-78
2023/12/16 10:04:06;;;;;;;;;;;;;;;7.84;53.44;102692.03;5461695;32;34940;-78
2023/12/16 10:07:09;;;;;;;;;;;;;;;7.37;54.90;102698.56;5443844;32;35146;-78
2023/12/16 10:10:14;;;;;;;;;;;;;;;7.91;53.44;102694.72;5461660;32;34364;-78
2023/12/16 10:13:16;;;;;;;;;;;;;;;8.11;52.71;102690.50;5450630;32;34667;-78
2023/12/16 10:16:21;;;;;;;;;;;;;;;8.11;53.14;102687.87;5470483;32;34302;-78
2023/12/16 10:19:24;;;;;;;;;;;;;;;7.16;54.58;102692.22;5442609;32;836111;-78
2023/12/16 10:22:28;;;;;;;;;;;;;;;8.22;53.00;102685.34;5463650;32;35204;-78
2023/12/16 10:25:31;;;;;;;;;;;;;;;6.87;55.60;102690.97;5450109;32;34522;-79
2023/12/16 10:28:38;;;;;;;;;;;;;;;7.64;55.02;102671.78;5464855;32;36035;-78
2023/12/16 10:31:40;;;;;;;;;;;;;;;8.65;52.06;102662.97;5447502;32;34962;-78
2023/12/16 10:34:42;;;;;;;;;;;;;;;8.53;51.91;102661.16;5467172;32;34164;-78
2023/12/16 10:37:50;;;;;;;;;;;;;;;8.61;51.43;102656.81;5449252;32;34670;-79
2023/12/16 10:40:57;;;;;;;;;;;;;;;8.33;52.12;102649.63;5467151;32;34612;-79
2023/12/16 10:43:59;;;;;;;;;;;;;;;8.69;51.90;102641.09;5462699;32;34725;-79
2023/12/16 10:47:07;;;;;;;;;;;;;;;9.14;50.86;102652.66;5462738;32;36350;-79
2023/12/16 10:50:10;;;;;;;;;;;;;;;7.86;53.21;102640.59;5455233;32;35620;-78
2023/12/16 10:53:15;;;;;;;;;;;;;;;8.84;51.52;102648.19;5447311;32;35491;-79
2023/12/16 10:56:21;;;;;;;;;;;;;;;9.46;49.97;102648.34;5453888;32;36171;-80
2023/12/16 10:59:32;;;;;;;;;;;;;;;8.48;51.54;102647.13;5462957;32;35986;-79
2023/12/16 11:02:42;;;;;;;;;;;;;;;8.72;50.68;102642.88;5466993;32;35547;-78
2023/12/16 11:05:51;;;;;;;;;;;;;;;8.76;52.08;102656.03;5454665;32;35083;-78
2023/12/16 11:09:04;;;;;;;;;;;;;;;8.80;51.85;102662.16;5449479;32;34596;-79
2023/12/16 11:12:09;;;;;;;;;;;;;;;8.85;51.91;102653.44;5467093;32;34912;-78
2023/12/16 11:15:11;;;;;;;;;;;;;;;8.36;52.77;102650.53;5464001;32;34683;-80
2023/12/16 11:18:14;;;;;;;;;;;;;;;8.27;53.18;102658.34;5452355;32;34555;-78
2023/12/16 11:21:18;;;;;;;;;;;;;;;8.77;52.47;102642.03;5449405;32;34660;-79
2023/12/16 11:24:20;;;;;;;;;;;;;;;9.04;50.67;102650.87;5448288;32;34186;-79
2023/12/16 11:27:22;;;;;;;;;;;;;;;9.32;50.61;102655.31;5447133;32;35278;-79
2023/12/16 11:30:24;;;;;;;;;;;;;;;10.81;47.22;102654.31;5461115;32;35082;-79
2023/12/16 11:33:43;;;;;;;;;;;;;;;9.55;48.66;102658.00;5452167;32;34221;-79
2023/12/16 11:36:46;;;;;;;;;;;;;;;10.69;46.17;102643.87;5464951;32;34281;-79
2023/12/16 11:39:49;;;;;;;;;;;;;;;12.40;42.31;102629.47;5465231;32;34671;-78
2023/12/16 11:42:52;;;;;;;;;;;;;;;10.70;46.15;102640.37;5464525;32;35021;-79
2023/12/16 11:45:54;;;;;;;;;;;;;;;10.43;46.93;102637.81;5464946;32;34658;-79
2023/12/16 11:48:57;;;;;;;;;;;;;;;11.95;43.50;102616.75;5468505;32;35149;-78
2023/12/16 11:51:59;;;;;;;;;;;;;;;12.70;41.74;102612.41;5468373;32;34668;-79
2023/12/16 11:55:01;;;;;;;;;;;;;;;13.08;40.98;102618.06;5472102;32;34204;-80
2023/12/16 11:58:04;;;;;;;;;;;;;;;12.36;42.86;102624.22;5447038;32;35224;-78
2023/12/16 12:01:06;;;;;;;;;;;;;;;12.98;41.42;102617.31;5466302;32;36229;-79
2023/12/16 12:04:09;;;;;;;;;;;;;;;15.26;37.26;102599.91;5468981;32;34766;-80
2023/12/16 12:07:11;;;;;;;;;;;;;;;16.39;34.04;102607.62;5451002;32;34622;-80
2023/12/16 12:10:14;;;;;;;;;;;;;;;17.51;31.49;102592.66;5470036;32;35041;-80
2023/12/16 12:13:16;;;;;;;;;;;;;;;17.47;32.66;102600.81;5464371;32;34363;-79
2023/12/16 12:16:18;;;;;;;;;;;;;;;19.28;30.10;102595.97;5468821;32;34607;-79
2023/12/16 12:19:20;;;;;;;;;;;;;;;18.81;29.54;102600.53;5464674;32;34960;-80
2023/12/16 12:22:23;;;;;;;;;;;;;;;16.00;33.77;102607.81;5465902;32;35009;-80
2023/12/16 12:25:25;;;;;;;;;;;;;;;14.80;35.99;102612.41;5454003;32;34946;-79
2023/12/16 12:28:27;;;;;;;;;;;;;;;17.09;32.56;102592.28;5464096;32;34988;-80
2023/12/16 12:31:30;;;;;;;;;;;;;;;16.10;33.86;102595.16;5468841;32;34819;-79
2023/12/16 12:34:32;;;;;;;;;;;;;;;16.49;33.61;102598.50;5451076;32;34775;-78
2023/12/16 12:37:34;;;;;;;;;;;;;;;15.86;34.77;102596.69;5454172;32;34697;-79
2023/12/16 12:40:38;;;;;;;;;;;;;;;16.95;32.95;102599.81;5450236;32;35362;-79
2023/12/16 12:43:40;;;;;;;;;;;;;;;14.90;35.76;102602.50;5465955;32;34962;-80
2023/12/16 12:46:46;;;;;;;;;;;;;;;13.48;38.81;102603.41;5468662;32;35132;-79
2023/12/16 12:49:48;;;;;;;;;;;;;;;15.85;35.86;102579.91;5449733;32;34241;-80
2023/12/16 12:52:50;;;;;;;;;;;;;;;18.39;31.36;102572.75;5475654;32;34743;-79
2023/12/16 12:56:12;;;;;;;;;;;;;;;19.37;29.02;102560.91;5452683;32;35249;-81
2023/12/16 12:59:15;;;;;;;;;;;;;;;18.18;30.58;102565.56;5453457;32;34352;-79
2023/12/16 13:02:37;;;;;;;;;;;;;;;15.48;34.57;102574.66;5465974;32;35335;-80
2023/12/16 13:05:41;;;;;;;;;;;;;;;13.28;38.79;102587.00;5466204;32;34425;-79
2023/12/16 13:08:43;;;;;;;;;;;;;;;14.00;37.73;102577.84;5470198;32;35011;-80
2023/12/16 13:11:45;;;;;;;;;;;;;;;12.18;40.77;102572.59;5464109;32;34999;-80
2023/12/16 13:14:47;;;;;;;;;;;;;;;11.87;42.32;102578.19;5454256;32;34246;-80
2023/12/16 13:17:50;;;;;;;;;;;;;;;11.32;43.49;102575.97;5465235;32;34858;-78
2023/12/16 13:20:53;;;;;;;;;;;;;;;10.79;45.27;102590.34;5465614;32;34373;-79
2023/12/16 13:23:55;;;;;;;;;;;;;;;10.19;46.84;102589.66;5469594;32;35416;-78
2023/12/16 13:27:00;;;;;;;;;;;;;;;10.66;45.83;102586.03;5464243;32;35076;-79
2023/12/16 13:30:02;;;;;;;;;;;;;;;10.27;46.35;102574.78;5469498;32;34714;-79
2023/12/16 13:33:05;;;;;;;;;;;;;;;9.63;48.12;102582.72;5464340;32;34861;-77
2023/12/16 13:36:09;;;;;;;;;;;;;;;9.71;48.29;102586.22;5467979;32;34797;-80
2023/12/16 13:39:31;;;;;;;;;;;;;;;9.46;48.63;102573.97;5451171;32;35122;-78
2023/12/16 13:42:33;;;;;;;;;;;;;;;9.20;49.39;102593.19;5464570;32;34668;-77
2023/12/16 13:45:35;;;;;;;;;;;;;;;9.89;48.17;102584.47;5454453;32;34805;-78
2023/12/16 13:48:37;;;;;;;;;;;;;;;9.17;49.74;102592.31;5461361;32;35329;-78
2023/12/16 13:51:40;;;;;;;;;;;;;;;9.37;49.59;102584.47;5450288;32;34529;-79
2023/12/16 13:54:42;;;;;;;;;;;;;;;9.74;49.08;102588.84;5464586;32;34343;-78
2023/12/16 13:57:44;;;;;;;;;;;;;;;10.84;47.58;102593.81;5463974;32;34632;-79
2023/12/16 14:00:46;;;;;;;;;;;;;;;12.20;44.12;102576.94;5466786;32;34805;-78
2023/12/16 14:03:48;;;;;;;;;;;;;;;13.64;40.37;102576.72;5464291;32;35362;-79
2023/12/16 14:06:50;;;;;;;;;;;;;;;12.79;40.76;102571.81;5468496;32;35054;-77
2023/12/16 14:09:53;;;;;;;;;;;;;;;13.75;39.95;102572.13;5433515;32;35121;-79
2023/12/16 14:12:55;;;;;;;;;;;;;;;13.38;40.31;102574.50;5468171;32;34668;-79
2023/12/16 14:15:57;;;;;;;;;;;;;;;11.84;43.13;102578.19;5463950;32;34722;-80
2023/12/16 14:18:59;;;;;;;;;;;;;;;10.68;46.12;102581.63;5464602;32;34435;-78
2023/12/16 14:22:02;;;;;;;;;;;;;;;10.65;47.03;102586.03;5466467;32;35432;-79
2023/12/16 14:25:06;;;;;;;;;;;;;;;9.76;49.29;102586.22;5449907;32;34805;-78
2023/12/16 14:28:08;;;;;;;;;;;;;;;9.38;50.62;102584.47;5467153;32;33409;-78
2023/12/16 14:31:10;;;;;;;;;;;;;;;9.56;50.38;102583.59;5462590;32;34727;-79
2023/12/16 14:34:12;;;;;;;;;;;;;;;9.81;49.86;102583.59;5447888;32;34654;-79
2023/12/16 14:37:14;;;;;;;;;;;;;;;8.52;53.69;102593.00;5463573;32;34966;-79
2023/12/16 14:40:17;;;;;;;;;;;;;;;8.77;53.30;102586.97;5462900;32;34286;-78
2023/12/16 14:43:19;;;;;;;;;;;;;;;9.16;52.19;102582.72;5467329;32;34805;-77
2023/12/16 14:46:21;;;;;;;;;;;;;;;8.72;53.27;102585.22;5463297;32;35708;-79
2023/12/16 14:49:23;;;;;;;;;;;;;;;8.68;53.68;102595.66;5463659;32;34520;-77
2023/12/16 14:52:25;;;;;;;;;;;;;;;8.18;54.83;102586.66;5461463;32;34669;-79
2023/12/16 14:55:28;;;;;;;;;;;;;;;7.37;57.42;102593.91;5466900;32;35163;-78
2023/12/16 14:58:30;;;;;;;;;;;;;;;8.12;55.88;102595.38;5447761;32;34717;-78
2023/12/16 15:01:32;;;;;;;;;;;;;;;7.22;57.99;102602.50;5447981;32;34713;-78
2023/12/16 15:04:35;;;;;;;;;;;;;;;8.14;56.05;102601.50;5466978;32;34814;-77
2023/12/16 15:07:37;;;;;;;;;;;;;;;8.41;55.18;102593.81;5448306;32;34708;-78
2023/12/16 15:10:39;;;;;;;;;;;;;;;8.34;55.56;102592.00;5454772;32;35394;-78
2023/12/16 15:13:41;;;;;;;;;;;;;;;8.74;54.35;102592.19;5428943;32;34236;-78
2023/12/16 15:16:43;;;;;;;;;;;;;;;8.53;54.50;102599.97;5462309;32;34237;-79
2023/12/16 15:19:47;;;;;;;;;;;;;;;8.32;55.47;102598.97;5461048;32;34280;-79
2023/12/16 15:22:49;;;;;;;;;;;;;;;7.36;58.88;102613.97;5460292;32;34835;-78
2023/12/16 15:25:51;;;;;;;;;;;;;;;7.32;59.04;102612.16;5467479;32;34880;-79
2023/12/16 15:28:53;;;;;;;;;;;;;;;7.40;58.57;102610.50;5463221;32;34669;-79
2023/12/16 15:31:56;;;;;;;;;;;;;;;6.88;60.07;102616.91;5463909;32;34927;-79
2023/12/16 15:34:59;;;;;;;;;;;;;;;6.54;62.62;102613.91;5461715;32;34964;-79
2023/12/16 15:38:02;;;;;;;;;;;;;;;7.10;61.03;102602.38;5465737;32;35597;-79
2023/12/16 15:41:04;;;;;;;;;;;;;;;7.39;59.31;102594.78;5462693;32;35293;-77
2023/12/16 15:44:10;;;;;;;;;;;;;;;6.95;61.21;102606.53;5448156;32;34039;-78
2023/12/16 15:47:12;;;;;;;;;;;;;;;7.18;60.35;102596.34;5465413;32;34982;-77
2023/12/16 15:50:14;;;;;;;;;;;;;;;6.87;62.21;102616.03;5461408;32;34361;-79